createdAt,value
2023-04-11T00:01:38.185Z,9.00
2023-04-11T00:04:06.918Z,9.10
2023-04-11T00:06:35.294Z,11.80
2023-04-11T00:09:03.760Z,11.40
2023-04-11T00:11:32.335Z,12.80
2023-04-11T00:14:00.424Z,12.10
2023-04-11T00:16:28.452Z,11.70
2023-04-11T00:18:57.465Z,9.60
2023-04-11T00:21:26.010Z,8.60
2023-04-11T00:23:54.434Z,10.50
2023-04-11T00:26:22.735Z,7.90
2023-04-11T00:28:50.787Z,10.10
2023-04-11T00:31:18.867Z,12.50
2023-04-11T00:33:47.337Z,12.10
2023-04-11T00:36:15.784Z,11.70
2023-04-11T00:38:44.848Z,10.00
2023-04-11T00:41:12.987Z,11.60
2023-04-11T00:43:41.072Z,9.00
2023-04-11T00:46:09.719Z,9.60
2023-04-11T00:48:38.224Z,10.40
2023-04-11T00:51:06.715Z,10.70
2023-04-11T00:53:37.409Z,9.60
2023-04-11T00:56:06.828Z,9.80
2023-04-11T00:58:37.633Z,10.60
2023-04-11T01:01:09.582Z,11.00
2023-04-11T01:03:41.548Z,11.80
2023-04-11T01:06:13.216Z,10.40
2023-04-11T01:08:43.539Z,10.50
2023-04-11T01:11:12.842Z,11.40
2023-04-11T01:16:10.751Z,10.70
2023-04-11T01:21:07.847Z,12.70
2023-04-11T01:23:35.922Z,16.80
2023-04-11T01:26:04.609Z,20.00
2023-04-11T01:28:32.849Z,16.40
2023-04-11T01:31:01.501Z,16.90
2023-04-11T01:33:29.848Z,16.30
2023-04-11T01:35:58.683Z,12.30
2023-04-11T01:38:27.012Z,14.70
2023-04-11T01:40:57.342Z,13.50
2023-04-11T01:43:25.716Z,13.30
2023-04-11T01:45:55.116Z,14.90
2023-04-11T01:50:52.179Z,14.30
2023-04-11T01:53:20.522Z,13.20
2023-04-11T01:55:48.738Z,16.30
2023-04-11T01:58:16.917Z,15.00
2023-04-11T02:00:45.186Z,14.70
2023-04-11T02:03:13.358Z,13.50
2023-04-11T02:05:42.875Z,13.20
2023-04-11T02:10:42.121Z,11.60
2023-04-11T02:13:10.108Z,12.90
2023-04-11T02:15:38.559Z,12.50
2023-04-11T02:18:09.661Z,12.00
2023-04-11T02:20:38.060Z,14.10
2023-04-11T02:23:07.841Z,13.30
2023-04-11T02:25:37.172Z,15.60
2023-04-11T02:30:36.148Z,11.80
2023-04-11T02:33:04.547Z,12.00
2023-04-11T02:35:32.499Z,13.50
2023-04-11T02:38:01.653Z,12.50
2023-04-11T02:40:31.024Z,29.80
2023-04-11T02:42:59.010Z,13.10
2023-04-11T02:45:27.275Z,11.20
2023-04-11T02:47:55.422Z,11.10
2023-04-11T02:50:26.057Z,10.10
2023-04-11T02:52:54.763Z,10.90
2023-04-11T02:55:25.825Z,12.00
2023-04-11T02:57:53.776Z,10.70
2023-04-11T03:00:22.267Z,9.90
2023-04-11T03:02:57.308Z,12.20
2023-04-11T03:05:25.984Z,10.70
2023-04-11T03:07:54.966Z,11.10
2023-04-11T03:10:23.252Z,11.50
2023-04-11T03:12:51.526Z,10.20
2023-04-11T03:15:20.306Z,9.60
2023-04-11T03:17:48.843Z,8.90
2023-04-11T03:20:19.942Z,10.50
2023-04-11T03:22:50.884Z,9.50
2023-04-11T03:25:19.377Z,12.80
2023-04-11T03:27:48.989Z,11.60
2023-04-11T03:30:17.104Z,13.20
2023-04-11T03:32:47.209Z,10.10
2023-04-11T03:35:15.391Z,13.10
2023-04-11T03:37:48.040Z,11.00
2023-04-11T03:40:18.795Z,10.40
2023-04-11T03:42:50.861Z,9.40
2023-04-11T03:45:21.965Z,11.70
2023-04-11T03:47:50.809Z,10.60
2023-04-11T03:50:20.057Z,11.90
2023-04-11T03:52:49.796Z,11.80
2023-04-11T03:55:18.771Z,11.30
2023-04-11T03:57:47.041Z,12.20
2023-04-11T04:00:16.443Z,11.50
2023-04-11T04:02:49.273Z,12.00
2023-04-11T04:05:17.599Z,10.70
2023-04-11T04:07:45.976Z,11.10
2023-04-11T04:10:21.305Z,10.80
2023-04-11T04:12:53.130Z,10.90
2023-04-11T04:15:24.841Z,10.10
2023-04-11T04:17:53.119Z,10.40
2023-04-11T04:20:27.648Z,9.00
2023-04-11T04:23:00.287Z,7.90
2023-04-11T04:25:36.790Z,9.50
2023-04-11T04:28:06.918Z,11.20
2023-04-11T04:30:38.879Z,9.50
2023-04-11T04:33:14.770Z,10.10
2023-04-11T04:35:47.211Z,11.60
2023-04-11T04:38:18.110Z,10.70
2023-04-11T04:45:59.365Z,9.70
2023-04-11T04:48:32.872Z,10.10
2023-04-11T04:51:00.890Z,9.70
2023-04-11T04:53:29.608Z,10.10
2023-04-11T04:55:59.523Z,11.80
2023-04-11T04:58:28.752Z,10.50
2023-04-11T05:00:57.655Z,12.60
2023-04-11T05:03:28.748Z,15.30
2023-04-11T05:08:28.199Z,15.60
2023-04-11T05:10:59.424Z,14.00
2023-04-11T05:13:27.809Z,14.90
2023-04-11T05:15:56.202Z,16.70
2023-04-11T05:18:29.522Z,14.90
2023-04-11T05:20:57.974Z,18.00
2023-04-11T05:23:30.752Z,15.50
2023-04-11T05:26:01.442Z,15.80
2023-04-11T05:31:03.332Z,14.20
2023-04-11T05:33:31.856Z,14.70
2023-04-11T05:36:01.462Z,15.70
2023-04-11T05:38:29.827Z,14.80
2023-04-11T05:40:57.945Z,15.30
2023-04-11T05:43:27.004Z,15.00
2023-04-11T05:45:55.087Z,16.00
2023-04-11T05:48:24.042Z,15.60
2023-04-11T05:53:20.301Z,15.70
2023-04-11T05:55:48.479Z,19.00
2023-04-11T05:58:17.071Z,15.90
2023-04-11T06:00:46.222Z,14.30
2023-04-11T06:03:14.700Z,19.00
2023-04-11T06:05:43.456Z,14.40
2023-04-11T06:10:40.390Z,13.90
2023-04-11T06:13:08.470Z,13.80
2023-04-11T06:15:37.288Z,19.40
2023-04-11T06:18:05.513Z,16.40
2023-04-11T06:20:33.601Z,12.30
2023-04-11T06:23:02.225Z,22.80
2023-04-11T06:25:33.565Z,13.20
2023-04-11T06:28:01.642Z,10.80
2023-04-11T06:30:32.311Z,17.50
2023-04-11T06:33:01.315Z,13.00
2023-04-11T06:35:29.351Z,21.50
2023-04-11T06:37:57.444Z,9.00
2023-04-11T06:40:25.508Z,10.70
2023-04-11T06:42:53.670Z,14.10
2023-04-11T06:47:50.252Z,8.20
2023-04-11T06:50:18.458Z,8.10
2023-04-11T06:52:46.800Z,8.70
2023-04-11T06:55:15.683Z,7.20
2023-04-11T06:57:44.420Z,6.90
2023-04-11T07:00:13.544Z,9.00
2023-04-11T07:02:42.100Z,7.50
2023-04-11T07:05:10.885Z,8.90
2023-04-11T07:07:38.919Z,7.20
2023-04-11T07:10:07.640Z,8.60
2023-04-11T07:12:35.847Z,10.10
2023-04-11T07:15:04.939Z,9.20
2023-04-11T07:17:32.925Z,9.40
2023-04-11T07:20:01.039Z,7.70
2023-04-11T07:22:29.544Z,8.40
2023-04-11T07:24:57.713Z,8.70
2023-04-11T07:27:26.814Z,9.50
2023-04-11T07:29:54.790Z,9.40
2023-04-11T07:32:23.137Z,9.30
2023-04-11T07:34:51.329Z,10.90
2023-04-11T07:37:19.742Z,10.50
2023-04-11T07:39:48.964Z,10.00
2023-04-11T07:42:17.305Z,10.50
2023-04-11T07:44:45.669Z,16.00
2023-04-11T07:47:13.737Z,12.10
2023-04-11T07:49:41.614Z,10.40
2023-04-11T07:52:11.235Z,11.20
2023-04-11T07:54:40.763Z,12.10
2023-04-11T07:57:08.990Z,11.20
2023-04-11T07:59:37.611Z,11.10
2023-04-11T08:02:08.256Z,13.40
2023-04-11T08:04:37.380Z,10.90
2023-04-11T08:07:07.035Z,11.90
2023-04-11T08:09:35.263Z,10.60
2023-04-11T08:12:04.591Z,10.40
2023-04-11T08:14:32.890Z,9.80
2023-04-11T08:17:01.183Z,10.50
2023-04-11T08:19:29.495Z,9.90
2023-04-11T08:21:57.592Z,11.40
2023-04-11T08:24:25.778Z,10.20
2023-04-11T08:26:53.954Z,9.80
2023-04-11T08:29:22.327Z,10.10
2023-04-11T08:31:50.821Z,10.80
2023-04-11T08:34:18.743Z,12.30
2023-04-11T08:36:46.759Z,9.70
2023-04-11T08:39:15.066Z,11.10
2023-04-11T08:41:43.423Z,11.90
2023-04-11T08:44:14.858Z,10.00
2023-04-11T08:46:43.904Z,9.50
2023-04-11T08:49:12.189Z,10.20
2023-04-11T08:51:42.557Z,8.30
2023-04-11T08:54:11.043Z,9.60
2023-04-11T08:56:43.104Z,8.30
2023-04-11T08:59:11.390Z,10.10
2023-04-11T09:01:40.810Z,8.50
2023-04-11T09:04:11.134Z,7.30
2023-04-11T09:06:40.301Z,7.60
2023-04-11T09:09:29.260Z,10.60
2023-04-11T09:11:58.072Z,9.10
2023-04-11T09:14:26.983Z,8.30
2023-04-11T09:17:01.381Z,8.70
2023-04-11T09:19:32.933Z,10.10
2023-04-11T09:22:05.993Z,8.40
2023-04-11T09:24:35.958Z,7.90
2023-04-11T09:27:16.012Z,8.10
2023-04-11T09:29:46.752Z,9.40
2023-04-11T09:32:35.104Z,7.90
2023-04-11T09:35:25.143Z,8.20
2023-04-11T09:37:58.602Z,16.50
2023-04-11T09:40:28.369Z,8.00
2023-04-11T09:43:02.005Z,8.50
2023-04-11T09:45:38.166Z,10.50
2023-04-11T09:48:09.970Z,7.50
2023-04-11T09:50:41.326Z,7.10
2023-04-11T09:53:10.910Z,6.80
2023-04-11T09:55:39.877Z,6.90
2023-04-11T09:58:20.890Z,7.40
2023-04-11T10:00:49.978Z,7.50
2023-04-11T10:03:20.672Z,8.00
2023-04-11T10:05:53.619Z,8.00
2023-04-11T10:08:33.996Z,7.00
2023-04-11T10:11:07.438Z,7.50
2023-04-11T10:13:35.856Z,6.80
2023-04-11T10:16:13.457Z,9.10
2023-04-11T10:18:47.886Z,8.30
2023-04-11T10:21:27.896Z,7.00
2023-04-11T10:24:18.391Z,7.70
2023-04-11T10:27:05.302Z,9.00
2023-04-11T10:29:33.876Z,11.10
2023-04-11T10:32:21.754Z,7.00
2023-04-11T10:34:56.843Z,6.80
2023-04-11T10:37:31.058Z,8.70
2023-04-11T10:40:00.925Z,8.30
2023-04-11T10:42:38.354Z,8.40
2023-04-11T10:45:26.280Z,6.60
2023-04-11T10:47:57.638Z,5.90
2023-04-11T10:50:26.114Z,7.20
2023-04-11T10:52:55.301Z,7.20
2023-04-11T11:00:48.173Z,5.70
2023-04-11T11:03:20.164Z,5.90
2023-04-11T11:05:59.279Z,6.10
2023-04-11T11:08:30.600Z,12.00
2023-04-11T11:11:04.165Z,7.30
2023-04-11T11:13:44.068Z,5.20
2023-04-11T11:16:17.718Z,8.90
2023-04-11T11:18:48.733Z,5.10
2023-04-11T11:21:27.719Z,5.80
2023-04-11T11:24:01.164Z,7.40
2023-04-11T11:26:44.090Z,7.40
2023-04-11T11:29:14.799Z,5.10
2023-04-11T11:31:48.215Z,6.20
2023-04-11T11:34:31.117Z,6.10
2023-04-11T11:37:06.882Z,6.50
2023-04-11T11:39:35.613Z,5.30
2023-04-11T11:44:33.034Z,6.90
2023-04-11T11:49:43.723Z,5.20
2023-04-11T11:52:13.093Z,6.10
2023-04-11T11:54:48.062Z,8.00
2023-04-11T11:57:25.238Z,6.30
2023-04-11T11:59:54.648Z,6.30
2023-04-11T12:02:27.756Z,6.20
2023-04-11T12:05:00.915Z,6.10
2023-04-11T12:07:37.033Z,6.20
2023-04-11T12:10:08.423Z,5.80
2023-04-11T12:12:38.817Z,6.30
2023-04-11T12:15:11.106Z,5.90
2023-04-11T12:17:43.483Z,5.30
2023-04-11T12:20:12.087Z,6.10
2023-04-11T12:22:40.537Z,5.40
2023-04-11T12:25:11.154Z,5.50
2023-04-11T12:27:43.068Z,6.50
2023-04-11T12:30:15.211Z,5.20
2023-04-11T12:32:44.883Z,8.80
2023-04-11T12:35:13.556Z,8.20
2023-04-11T12:37:41.878Z,8.90
2023-04-11T12:40:12.300Z,6.10
2023-04-11T12:42:53.261Z,6.20
2023-04-11T12:45:25.922Z,5.40
2023-04-11T12:47:54.409Z,6.00
2023-04-11T12:50:24.281Z,6.00
2023-04-11T12:52:53.470Z,6.00
2023-04-11T12:55:22.741Z,5.60
2023-04-11T12:57:51.288Z,5.70
2023-04-11T13:00:22.806Z,6.10
2023-04-11T13:05:22.266Z,5.80
2023-04-11T13:07:50.844Z,6.60
2023-04-11T13:10:19.035Z,6.80
2023-04-11T13:12:48.552Z,7.80
2023-04-11T13:15:17.405Z,7.30
2023-04-11T13:17:45.921Z,6.40
2023-04-11T13:20:14.641Z,5.90
2023-04-11T13:22:43.599Z,9.10
2023-04-11T13:27:42.163Z,6.70
2023-04-11T13:30:11.453Z,6.00
2023-04-11T13:32:40.095Z,5.60
2023-04-11T13:35:08.933Z,6.00
2023-04-11T13:40:10.637Z,6.30
2023-04-11T13:42:38.821Z,6.90
2023-04-11T13:45:07.524Z,6.00
2023-04-11T13:47:38.415Z,8.80
2023-04-11T13:50:10.353Z,6.90
2023-04-11T13:52:40.181Z,5.70
2023-04-11T13:55:08.836Z,5.60
2023-04-11T13:57:37.367Z,8.80
2023-04-11T14:00:15.031Z,7.30
2023-04-11T14:02:44.620Z,9.80
2023-04-11T14:05:13.571Z,6.70
2023-04-11T14:07:41.871Z,7.30
2023-04-11T14:10:10.747Z,8.10
2023-04-11T14:12:39.346Z,7.20
2023-04-11T14:15:08.322Z,11.20
2023-04-11T14:20:11.722Z,8.10
2023-04-11T14:22:41.847Z,7.10
2023-04-11T14:25:13.997Z,6.10
2023-04-11T14:27:42.313Z,6.40
2023-04-11T14:30:13.310Z,5.80
2023-04-11T14:32:42.036Z,6.40
2023-04-11T14:37:38.654Z,9.40
2023-04-11T14:40:11.232Z,8.00
2023-04-11T14:42:39.762Z,7.30
2023-04-11T14:45:08.512Z,7.10
2023-04-11T14:47:37.573Z,7.70
2023-04-11T14:50:07.011Z,6.70
2023-04-11T14:52:35.386Z,6.00
2023-04-11T14:55:03.810Z,8.50
2023-04-11T14:57:47.039Z,6.60
2023-04-11T15:00:19.898Z,6.90
2023-04-11T15:02:57.921Z,6.80
2023-04-11T15:05:26.900Z,7.40
2023-04-11T15:07:54.972Z,7.20
2023-04-11T15:10:26.565Z,7.90
2023-04-11T15:12:54.634Z,6.40
2023-04-11T15:15:23.168Z,9.80
2023-04-11T15:18:20.020Z,7.40
2023-04-11T15:20:48.717Z,8.50
2023-04-11T15:23:18.613Z,7.40
2023-04-11T15:25:52.029Z,7.40
2023-04-11T15:28:20.800Z,6.80
2023-04-11T15:30:51.080Z,6.80
2023-04-11T15:33:22.121Z,7.20
2023-04-11T15:35:51.419Z,6.30
2023-04-11T15:38:20.472Z,8.00
2023-04-11T15:40:56.706Z,8.00
2023-04-11T15:43:25.409Z,7.10
2023-04-11T15:45:56.145Z,9.40
2023-04-11T15:48:24.691Z,8.30
2023-04-11T15:50:52.901Z,7.20
2023-04-11T15:53:21.582Z,8.50
2023-04-11T15:55:49.667Z,6.30
2023-04-11T15:58:18.654Z,7.90
2023-04-11T16:00:47.088Z,9.70
2023-04-11T16:03:16.749Z,10.20
2023-04-11T16:05:45.767Z,14.20
2023-04-11T16:08:14.012Z,10.10
2023-04-11T16:10:42.224Z,9.70
2023-04-11T16:13:10.282Z,8.50
2023-04-11T16:15:38.658Z,7.80
2023-04-11T16:18:07.283Z,8.20
2023-04-11T16:20:35.708Z,7.50
2023-04-11T16:23:03.807Z,8.20
2023-04-11T16:25:32.667Z,9.40
2023-04-11T16:28:00.854Z,10.00
2023-04-11T16:30:28.872Z,15.10
2023-04-11T16:32:57.346Z,13.50
2023-04-11T16:35:25.888Z,9.20
2023-04-11T16:37:54.584Z,9.40
2023-04-11T16:40:22.788Z,9.90
2023-04-11T16:42:50.885Z,12.70
2023-04-11T16:45:19.007Z,8.70
2023-04-11T16:47:47.168Z,8.30
2023-04-11T16:50:15.851Z,10.40
2023-04-11T16:52:44.021Z,8.20
2023-04-11T16:55:12.321Z,10.50
2023-04-11T16:57:40.630Z,11.60
2023-04-11T17:00:20.014Z,12.90
2023-04-11T17:02:48.374Z,11.00
2023-04-11T17:05:19.257Z,8.80
2023-04-11T17:07:47.610Z,9.20
2023-04-11T17:10:16.209Z,9.60
2023-04-11T17:12:44.258Z,11.00
2023-04-11T17:15:12.337Z,9.30
2023-04-11T17:17:40.731Z,8.80
2023-04-11T17:20:10.422Z,11.00
2023-04-11T17:22:41.642Z,12.00
2023-04-11T17:25:10.355Z,9.40
2023-04-11T17:27:39.144Z,8.50
2023-04-11T17:30:12.076Z,9.10
2023-04-11T17:32:40.130Z,9.10
2023-04-11T17:35:08.800Z,9.20
2023-04-11T17:37:37.052Z,8.60
2023-04-11T17:40:15.335Z,9.30
2023-04-11T17:42:43.867Z,8.60
2023-04-11T17:47:44.357Z,8.40
2023-04-11T17:50:14.220Z,8.00
2023-04-11T17:52:44.270Z,8.60
2023-04-11T17:55:15.121Z,8.70
2023-04-11T17:57:49.036Z,8.50
2023-04-11T18:00:23.411Z,11.90
2023-04-11T18:03:01.668Z,9.00
2023-04-11T18:05:35.025Z,8.70
2023-04-11T18:08:04.678Z,9.80
2023-04-11T18:10:33.007Z,8.80
2023-04-11T18:13:03.744Z,9.90
2023-04-11T18:15:35.756Z,9.70
2023-04-11T18:18:08.043Z,8.60
2023-04-11T18:20:36.757Z,9.40
2023-04-11T18:23:05.250Z,9.90
2023-04-11T18:25:33.732Z,9.40
2023-04-11T18:28:02.637Z,9.50
2023-04-11T18:30:31.234Z,10.30
2023-04-11T18:32:59.740Z,9.40
2023-04-11T18:35:29.569Z,14.40
2023-04-11T18:38:03.725Z,9.70
2023-04-11T18:40:32.798Z,11.30
2023-04-11T18:43:01.512Z,9.10
2023-04-11T18:45:30.230Z,8.90
2023-04-11T18:47:58.658Z,9.70
2023-04-11T18:50:28.365Z,9.60
2023-04-11T18:53:01.735Z,11.90
2023-04-11T18:55:32.396Z,8.40
2023-04-11T18:58:01.490Z,10.70
2023-04-11T19:00:32.513Z,10.70
2023-04-11T19:03:06.690Z,9.90
2023-04-11T19:05:36.230Z,13.80
2023-04-11T19:10:32.706Z,12.30
2023-04-11T19:13:00.989Z,10.50
2023-04-11T19:15:29.470Z,12.20
2023-04-11T19:17:58.480Z,12.00
2023-04-11T19:20:27.043Z,10.00
2023-04-11T19:22:55.173Z,10.80
2023-04-11T19:25:24.515Z,11.80
2023-04-11T19:27:53.201Z,11.90
2023-04-11T19:30:21.627Z,11.30
2023-04-11T19:32:51.138Z,14.20
2023-04-11T19:35:21.727Z,9.90
2023-04-11T19:37:51.019Z,9.60
2023-04-11T19:40:19.471Z,10.40
2023-04-11T19:42:51.596Z,10.10
2023-04-11T19:45:20.102Z,9.50
2023-04-11T19:47:48.829Z,9.10
2023-04-11T19:50:19.317Z,10.30
2023-04-11T19:52:47.795Z,10.20
2023-04-11T19:55:16.376Z,11.00
2023-04-11T19:57:44.563Z,8.50
2023-04-11T20:00:14.362Z,8.20
2023-04-11T20:02:45.962Z,7.80
2023-04-11T20:05:16.480Z,8.60
2023-04-11T20:07:46.177Z,9.20
2023-04-11T20:10:15.535Z,7.90
2023-04-11T20:12:43.788Z,7.50
2023-04-11T20:15:12.082Z,8.10
2023-04-11T20:17:40.415Z,7.60
2023-04-11T20:20:15.894Z,8.50
2023-04-11T20:22:46.581Z,9.50
2023-04-11T20:25:15.026Z,10.10
2023-04-11T20:27:44.017Z,8.10
2023-04-11T20:30:14.187Z,8.90
2023-04-11T20:32:43.022Z,10.10
2023-04-11T20:35:14.725Z,10.10
2023-04-11T20:37:43.907Z,8.80
2023-04-11T20:40:14.279Z,9.30
2023-04-11T20:42:45.732Z,11.10
2023-04-11T20:45:17.047Z,9.60
2023-04-11T20:47:46.293Z,8.80
2023-04-11T20:50:16.964Z,9.50
2023-04-11T20:52:47.354Z,10.70
2023-04-11T20:55:15.965Z,7.80
2023-04-11T20:57:44.914Z,9.00
2023-04-11T21:00:14.977Z,9.90
2023-04-11T21:02:47.552Z,12.10
2023-04-11T21:05:20.251Z,8.70
2023-04-11T21:07:48.529Z,9.60
2023-04-11T21:10:16.956Z,9.60
2023-04-11T21:12:51.387Z,13.10
2023-04-11T21:15:21.294Z,10.10
2023-04-11T21:17:50.375Z,9.10
2023-04-11T21:25:17.205Z,10.40
2023-04-11T21:27:46.723Z,8.60
2023-04-11T21:30:15.057Z,9.10
2023-04-11T21:32:43.466Z,8.70
2023-04-11T21:35:12.481Z,9.00
2023-04-11T21:37:40.775Z,9.30
2023-04-11T21:40:16.964Z,10.80
2023-04-11T21:42:45.733Z,9.80
2023-04-11T21:45:14.116Z,11.70
2023-04-11T21:47:42.539Z,10.80
2023-04-11T21:50:11.369Z,9.60
2023-04-11T21:52:39.621Z,9.60
2023-04-11T21:55:09.086Z,10.30
2023-04-11T21:58:00.246Z,10.40
2023-04-11T22:00:38.552Z,9.20
2023-04-11T22:03:07.841Z,10.70
2023-04-11T22:05:41.861Z,9.30
2023-04-11T22:08:20.438Z,10.30
2023-04-11T22:10:50.793Z,7.90
2023-04-11T22:13:22.376Z,12.80
2023-04-11T22:16:05.422Z,9.10
2023-04-11T22:18:47.092Z,8.80
2023-04-11T22:21:19.929Z,8.20
2023-04-11T22:23:54.566Z,8.40
2023-04-11T22:26:33.988Z,9.10
2023-04-11T22:29:05.408Z,8.50
2023-04-11T22:31:38.624Z,9.10
2023-04-11T22:34:10.647Z,8.40
2023-04-11T22:36:38.924Z,9.90
2023-04-11T22:39:08.421Z,7.90
2023-04-11T22:41:38.709Z,8.00
2023-04-11T22:44:07.278Z,8.70
2023-04-11T22:46:38.753Z,9.30
2023-04-11T22:49:09.844Z,7.70
2023-04-11T22:51:38.350Z,10.90
2023-04-11T22:54:08.622Z,11.30
2023-04-11T22:56:36.770Z,10.20
2023-04-11T22:59:04.838Z,11.70
2023-04-11T23:01:33.526Z,9.60
2023-04-11T23:04:02.082Z,9.70
2023-04-11T23:06:30.517Z,8.90
2023-04-11T23:08:58.486Z,9.80
2023-04-11T23:11:26.975Z,8.60
2023-04-11T23:13:55.315Z,8.90
2023-04-11T23:16:23.530Z,8.40
2023-04-11T23:18:52.218Z,10.30
2023-04-11T23:21:20.280Z,9.00
2023-04-11T23:23:48.696Z,8.80
2023-04-11T23:26:24.412Z,10.80
2023-04-11T23:28:53.513Z,9.50
2023-04-11T23:31:21.792Z,9.90
2023-04-11T23:33:50.161Z,9.50
2023-04-11T23:36:18.314Z,9.50
2023-04-11T23:38:46.745Z,8.40
2023-04-11T23:41:15.196Z,9.50
2023-04-11T23:43:43.402Z,9.10
2023-04-11T23:46:12.453Z,8.30
2023-04-11T23:48:40.951Z,8.60
2023-04-11T23:51:09.131Z,9.40
2023-04-11T23:53:37.399Z,9.10
2023-04-11T23:56:05.918Z,9.00
2023-04-11T23:58:34.778Z,8.90
